Time;durP1;ratioP1;P1;durP2;ratioP2;P2;SDS_P1;SDS_P2;PMS_P1;PMS_P2;Temp;Humidity;BMP_temperature;BMP_pressure;BME280_temperature;BME280_humidity;BME280_pressure;Samples;Min_cycle;Max_cycle;Signal;HPM_P1;HPM_P2
2021/01/09 00:02:21;;;;;;;17.30;11.98;;;2.50;99.90;;;;;;4990923;28;20026;-58
2021/01/09 00:04:46;;;;;;;19.23;13.13;;;2.50;99.90;;;;;;5007038;28;20036;-53
2021/01/09 00:07:12;;;;;;;16.80;12.98;;;2.60;99.90;;;;;;5010368;28;20021;-58
2021/01/09 00:09:37;;;;;;;16.73;12.15;;;2.60;99.90;;;;;;5010073;28;20066;-57
2021/01/09 00:12:04;;;;;;;21.65;14.45;;;2.60;99.90;;;;;;5010320;28;20149;-59
2021/01/09 00:14:30;;;;;;;19.60;13.40;;;2.80;99.90;;;;;;5008895;28;20030;-58
2021/01/09 00:16:56;;;;;;;18.70;12.30;;;2.90;99.90;;;;;;5010078;28;20083;-59
2021/01/09 00:19:22;;;;;;;15.35;11.20;;;2.90;99.90;;;;;;5010139;28;20460;-52
2021/01/09 00:21:47;;;;;;;16.08;11.48;;;2.80;99.90;;;;;;5010075;28;20018;-53
2021/01/09 00:24:13;;;;;;;16.45;11.45;;;2.80;99.90;;;;;;5010008;28;20033;-54
2021/01/09 00:26:38;;;;;;;16.73;11.65;;;2.60;99.90;;;;;;5010321;28;20389;-53
2021/01/09 00:29:05;;;;;;;15.82;11.48;;;2.60;99.90;;;;;;5009504;28;20451;-52
2021/01/09 00:31:31;;;;;;;16.13;10.63;;;2.50;99.90;;;;;;5010143;28;20029;-55
2021/01/09 00:33:56;;;;;;;16.92;11.43;;;2.60;99.90;;;;;;5009507;28;20108;-49
2021/01/09 00:36:22;;;;;;;16.45;11.38;;;2.60;99.90;;;;;;4990846;28;20030;-50
2021/01/09 00:38:47;;;;;;;16.33;10.65;;;2.60;99.90;;;;;;4989207;28;20110;-47
2021/01/09 00:41:13;;;;;;;14.50;11.02;;;2.60;99.90;;;;;;4990305;28;20026;-48
2021/01/09 00:43:39;;;;;;;15.00;10.95;;;2.60;99.90;;;;;;4989823;28;20493;-49
2021/01/09 00:46:04;;;;;;;15.95;12.07;;;2.60;99.90;;;;;;4990712;28;20098;-47
2021/01/09 00:48:30;;;;;;;16.23;11.18;;;2.60;99.90;;;;;;4990531;28;20031;-53
2021/01/09 00:50:56;;;;;;;14.45;10.40;;;2.60;99.90;;;;;;4994627;28;20026;-54
2021/01/09 00:53:21;;;;;;;18.23;10.50;;;2.60;99.90;;;;;;5009399;28;20034;-53
2021/01/09 00:55:47;;;;;;;13.48;9.73;;;2.60;99.90;;;;;;5009953;28;20034;-49
2021/01/09 00:58:12;;;;;;;13.60;9.88;;;2.70;99.90;;;;;;5001352;28;20105;-49
2021/01/09 01:00:38;;;;;;;15.27;10.85;;;2.70;99.90;;;;;;4989776;28;20065;-51
2021/01/09 01:03:04;;;;;;;13.73;9.65;;;2.70;99.90;;;;;;4989902;28;20076;-58
2021/01/09 01:05:29;;;;;;;14.93;10.57;;;2.70;99.90;;;;;;5015982;28;20037;-59
2021/01/09 01:07:55;;;;;;;17.55;10.50;;;2.70;99.90;;;;;;5027726;28;20021;-54
2021/01/09 01:10:20;;;;;;;14.40;10.48;;;2.80;99.90;;;;;;5059405;23;20496;-54
2021/01/09 01:12:46;;;;;;;13.38;9.05;;;2.80;99.90;;;;;;5049415;28;20029;-56
2021/01/09 01:15:12;;;;;;;15.48;10.07;;;2.80;99.90;;;;;;5050218;28;20025;-56
2021/01/09 01:17:37;;;;;;;13.80;9.98;;;2.70;99.90;;;;;;5047775;28;20025;-55
2021/01/09 01:20:04;;;;;;;16.20;10.52;;;2.80;99.90;;;;;;5050078;28;20028;-56
2021/01/09 01:22:29;;;;;;;14.88;10.82;;;2.80;99.90;;;;;;5049892;28;20407;-53
2021/01/09 01:24:55;;;;;;;12.25;9.70;;;2.80;99.90;;;;;;5050068;28;20111;-52
2021/01/09 01:27:20;;;;;;;15.07;10.40;;;2.80;99.90;;;;;;5052728;28;20032;-54
2021/01/09 01:29:46;;;;;;;14.00;9.15;;;2.70;99.90;;;;;;5053755;28;20086;-50
2021/01/09 01:32:11;;;;;;;15.77;11.02;;;2.80;99.90;;;;;;5054307;28;20033;-54
2021/01/09 01:34:37;;;;;;;13.95;9.95;;;2.70;99.90;;;;;;5053295;28;20029;-53
2021/01/09 01:37:02;;;;;;;14.52;10.40;;;2.70;99.90;;;;;;5052894;28;20399;-54
2021/01/09 01:39:28;;;;;;;13.20;9.25;;;2.70;99.90;;;;;;5053972;28;20419;-54
2021/01/09 01:41:57;;;;;;;14.10;10.27;;;2.70;99.90;;;;;;5052683;28;20482;-56
2021/01/09 01:44:22;;;;;;;13.95;10.10;;;2.70;99.90;;;;;;5053182;28;20412;-56
2021/01/09 01:46:49;;;;;;;17.25;10.48;;;2.70;99.90;;;;;;5052258;28;20027;-54
2021/01/09 01:49:14;;;;;;;14.10;9.95;;;2.70;99.90;;;;;;5053648;28;20032;-54
2021/01/09 01:51:42;;;;;;;17.10;11.15;;;2.70;99.90;;;;;;5052304;28;20033;-54
2021/01/09 01:54:09;;;;;;;15.57;10.77;;;2.70;99.90;;;;;;5052647;28;20031;-57
2021/01/09 01:56:34;;;;;;;16.55;9.95;;;2.70;99.90;;;;;;5053424;28;20104;-52
2021/01/09 01:59:00;;;;;;;14.73;10.75;;;2.80;99.90;;;;;;5053339;28;20163;-53
2021/01/09 02:01:26;;;;;;;12.13;9.35;;;2.80;99.90;;;;;;5053180;28;20025;-50
2021/01/09 02:03:53;;;;;;;17.60;10.88;;;2.80;99.90;;;;;;5052732;28;20114;-51
2021/01/09 02:06:25;;;;;;;18.60;11.60;;;2.80;99.90;;;;;;5053349;28;20025;-52
2021/01/09 02:08:51;;;;;;;17.75;12.20;;;2.70;99.90;;;;;;5053455;28;20480;-49
2021/01/09 02:11:36;;;;;;;14.98;9.95;;;2.80;99.90;;;;;;5053552;28;20035;-52
2021/01/09 02:14:04;;;;;;;15.80;11.67;;;2.90;99.90;;;;;;5052889;28;20049;-52
2021/01/09 02:16:31;;;;;;;14.90;10.65;;;2.90;99.80;;;;;;5052184;28;20025;-51
2021/01/09 02:18:59;;;;;;;16.75;10.68;;;2.80;99.80;;;;;;5052758;28;20040;-51
2021/01/09 02:21:41;;;;;;;16.63;10.38;;;2.70;99.90;;;;;;5053048;28;20032;-53
2021/01/09 02:24:24;;;;;;;15.30;10.25;;;2.70;99.90;;;;;;5052444;28;20029;-51
2021/01/09 02:26:50;;;;;;;13.98;9.40;;;2.60;99.90;;;;;;5051701;28;20028;-52
2021/01/09 02:29:16;;;;;;;15.27;10.05;;;2.60;99.90;;;;;;5053094;28;20017;-54
2021/01/09 02:32:03;;;;;;;14.93;10.13;;;2.60;99.90;;;;;;5051778;28;20444;-52
2021/01/09 02:34:44;;;;;;;13.52;9.82;;;2.60;99.90;;;;;;5055674;28;20502;-58
2021/01/09 02:37:10;;;;;;;14.60;10.77;;;2.50;99.90;;;;;;5057343;28;20158;-51
2021/01/09 02:39:36;;;;;;;16.90;11.13;;;2.50;99.90;;;;;;5056445;28;20442;-55
2021/01/09 02:42:03;;;;;;;16.10;10.68;;;2.50;99.90;;;;;;5051163;28;20020;-54
2021/01/09 02:44:31;;;;;;;14.80;10.07;;;2.60;99.90;;;;;;5051446;28;20029;-55
2021/01/09 02:46:56;;;;;;;16.15;11.85;;;2.50;99.90;;;;;;5052370;28;20112;-54
2021/01/09 02:49:22;;;;;;;14.02;9.90;;;2.50;99.90;;;;;;5052654;28;20523;-57
2021/01/09 02:51:47;;;;;;;14.75;10.75;;;2.50;99.90;;;;;;5052306;28;20068;-54
2021/01/09 02:54:13;;;;;;;15.73;11.25;;;2.50;99.90;;;;;;5051456;28;20412;-57
2021/01/09 02:56:38;;;;;;;14.55;10.52;;;2.50;99.90;;;;;;5052219;28;20037;-53
2021/01/09 02:59:04;;;;;;;15.88;10.98;;;2.40;99.90;;;;;;5051967;28;20028;-57
2021/01/09 03:01:31;;;;;;;16.20;10.32;;;2.50;99.90;;;;;;5052103;28;20053;-53
2021/01/09 03:03:57;;;;;;;15.18;11.05;;;2.50;99.90;;;;;;5051320;28;20017;-54
2021/01/09 03:06:24;;;;;;;15.25;10.88;;;2.50;99.90;;;;;;5049867;28;20071;-55
2021/01/09 03:08:49;;;;;;;16.17;11.13;;;2.50;99.90;;;;;;5052165;28;20028;-54
2021/01/09 03:11:16;;;;;;;13.80;10.50;;;2.50;99.90;;;;;;5051872;28;20040;-53
2021/01/09 03:13:42;;;;;;;16.73;11.57;;;2.50;99.90;;;;;;5051237;28;20037;-50
2021/01/09 03:16:08;;;;;;;16.05;11.88;;;2.50;99.90;;;;;;5050544;28;20036;-54
2021/01/09 03:18:33;;;;;;;15.45;10.60;;;2.50;99.90;;;;;;5051517;28;20029;-54
2021/01/09 03:20:59;;;;;;;17.13;11.50;;;2.50;99.90;;;;;;5052510;28;20499;-51
2021/01/09 03:23:25;;;;;;;17.10;12.68;;;2.50;99.90;;;;;;5051310;28;20025;-53
2021/01/09 03:25:50;;;;;;;16.27;11.45;;;2.60;99.90;;;;;;5051621;28;20028;-55
2021/01/09 03:28:16;;;;;;;18.23;11.10;;;2.60;99.90;;;;;;5051785;28;20598;-56
2021/01/09 03:30:42;;;;;;;19.45;12.63;;;2.60;99.90;;;;;;5051428;28;20258;-55
2021/01/09 03:33:08;;;;;;;17.92;12.60;;;2.60;99.90;;;;;;5050988;28;20035;-58
2021/01/09 03:35:33;;;;;;;20.42;12.82;;;2.60;99.90;;;;;;5051821;28;20029;-52
2021/01/09 03:37:59;;;;;;;19.02;11.95;;;2.70;99.90;;;;;;5051593;28;20036;-54
2021/01/09 03:40:24;;;;;;;17.25;12.35;;;2.70;99.90;;;;;;5051164;28;20021;-54
2021/01/09 03:42:50;;;;;;;18.23;12.60;;;2.70;99.90;;;;;;5051001;28;20086;-52
2021/01/09 03:45:16;;;;;;;18.13;11.93;;;2.70;99.90;;;;;;5051207;28;20025;-53
2021/01/09 03:47:41;;;;;;;17.98;13.38;;;2.70;99.90;;;;;;5051431;28;20029;-53
2021/01/09 03:50:07;;;;;;;18.95;13.15;;;2.70;99.90;;;;;;5050405;28;20040;-53
2021/01/09 03:52:33;;;;;;;18.08;13.40;;;2.70;99.90;;;;;;5050642;28;20434;-56
2021/01/09 03:54:58;;;;;;;19.05;12.75;;;2.70;99.90;;;;;;5051368;28;20087;-49
2021/01/09 03:57:24;;;;;;;18.95;11.85;;;2.70;99.90;;;;;;5050902;28;20495;-53
2021/01/09 03:59:49;;;;;;;18.40;12.35;;;2.70;99.90;;;;;;5051380;28;20108;-57
2021/01/09 04:02:15;;;;;;;17.63;12.15;;;2.70;99.90;;;;;;5051047;28;20480;-55
2021/01/09 04:04:41;;;;;;;21.73;13.07;;;2.60;99.90;;;;;;5050269;28;20025;-55
2021/01/09 04:07:06;;;;;;;16.67;11.55;;;2.60;99.90;;;;;;5050939;28;20021;-50
2021/01/09 04:09:32;;;;;;;18.08;12.93;;;2.70;99.90;;;;;;5050994;28;20406;-55
2021/01/09 04:11:57;;;;;;;17.60;12.45;;;2.70;99.90;;;;;;5051328;28;20409;-52
2021/01/09 04:14:23;;;;;;;19.00;13.07;;;2.70;99.90;;;;;;5050221;28;20112;-50
2021/01/09 04:16:48;;;;;;;18.65;12.60;;;2.70;99.90;;;;;;5048900;28;20472;-53
2021/01/09 04:19:14;;;;;;;19.23;12.95;;;2.70;99.90;;;;;;5050840;28;20064;-53
2021/01/09 04:21:51;;;;;;;19.25;13.45;;;2.70;99.90;;;;;;5049744;28;20017;-53
2021/01/09 04:24:21;;;;;;;18.63;12.43;;;2.70;99.90;;;;;;5050167;28;20025;-53
2021/01/09 04:26:58;;;;;;;18.00;12.63;;;2.60;99.90;;;;;;5050967;28;20108;-55
2021/01/09 04:29:24;;;;;;;20.85;13.07;;;2.60;99.90;;;;;;5051079;28;20109;-51
2021/01/09 04:31:50;;;;;;;22.45;14.55;;;2.60;99.90;;;;;;5051085;28;20025;-54
2021/01/09 04:34:17;;;;;;;19.10;13.52;;;2.60;99.90;;;;;;5049087;28;20475;-54
2021/01/09 04:36:43;;;;;;;20.63;13.82;;;2.60;99.90;;;;;;5049729;28;20029;-53
2021/01/09 04:39:09;;;;;;;22.63;13.63;;;2.60;99.90;;;;;;5050789;28;20082;-51
2021/01/09 04:41:36;;;;;;;19.10;13.27;;;2.60;99.90;;;;;;5050831;28;20025;-52
2021/01/09 04:44:04;;;;;;;18.55;13.13;;;2.60;99.90;;;;;;5050090;28;20024;-55
2021/01/09 04:46:33;;;;;;;20.40;13.80;;;2.70;99.90;;;;;;5050770;28;20024;-55
2021/01/09 04:48:59;;;;;;;19.00;13.32;;;2.70;99.90;;;;;;5049506;28;20156;-55
2021/01/09 04:51:26;;;;;;;20.65;13.50;;;2.70;99.90;;;;;;5050582;28;20511;-54
2021/01/09 04:53:54;;;;;;;19.45;13.20;;;2.70;99.90;;;;;;5049485;28;20091;-58
2021/01/09 04:56:20;;;;;;;21.35;13.98;;;2.70;99.90;;;;;;5050627;28;20029;-54
2021/01/09 04:58:45;;;;;;;19.48;14.07;;;2.80;99.90;;;;;;5050447;28;20025;-52
2021/01/09 05:01:12;;;;;;;20.58;13.48;;;2.80;99.90;;;;;;5052706;28;20025;-49
2021/01/09 05:03:37;;;;;;;17.73;12.43;;;2.70;99.90;;;;;;5053785;28;20025;-53
2021/01/09 05:06:03;;;;;;;21.08;13.90;;;2.70;99.90;;;;;;5054320;28;20024;-52
2021/01/09 05:08:28;;;;;;;23.85;14.68;;;2.70;99.90;;;;;;5054188;28;20483;-54
2021/01/09 05:10:55;;;;;;;21.90;14.13;;;2.70;99.90;;;;;;5052687;28;20049;-49
2021/01/09 05:13:23;;;;;;;22.63;15.10;;;2.60;99.90;;;;;;5053554;28;20465;-53
2021/01/09 05:15:49;;;;;;;19.60;13.45;;;2.60;99.90;;;;;;5054445;28;20100;-55
2021/01/09 05:18:17;;;;;;;21.55;14.13;;;2.50;99.90;;;;;;5054201;28;20029;-55
2021/01/09 05:20:43;;;;;;;26.27;14.50;;;2.50;99.90;;;;;;5054103;28;20274;-52
2021/01/09 05:23:10;;;;;;;22.50;13.80;;;2.50;99.90;;;;;;5053591;28;20384;-57
2021/01/09 05:25:37;;;;;;;23.88;14.32;;;2.50;99.90;;;;;;5054107;28;20021;-53
2021/01/09 05:28:04;;;;;;;17.55;12.43;;;2.50;99.90;;;;;;5054013;28;20029;-49
2021/01/09 05:30:31;;;;;;;20.52;13.32;;;2.50;99.90;;;;;;5053992;28;20033;-49
2021/01/09 05:33:00;;;;;;;16.55;11.65;;;2.60;99.90;;;;;;5053639;28;20114;-54
2021/01/09 05:35:27;;;;;;;17.67;12.32;;;2.60;99.90;;;;;;5053508;28;20111;-55
2021/01/09 05:37:53;;;;;;;19.20;12.13;;;2.60;99.90;;;;;;5053404;28;20102;-52
2021/01/09 05:40:18;;;;;;;20.80;14.18;;;2.60;99.90;;;;;;5053534;28;20327;-50
2021/01/09 05:42:44;;;;;;;19.27;13.02;;;2.60;99.90;;;;;;5052739;28;20029;-53
2021/01/09 05:45:11;;;;;;;18.65;12.90;;;2.60;99.90;;;;;;5053501;28;20063;-56
2021/01/09 05:47:38;;;;;;;20.17;13.38;;;2.60;99.90;;;;;;5053253;28;20052;-56
2021/01/09 05:50:05;;;;;;;20.35;14.35;;;2.60;99.90;;;;;;5053089;28;20021;-55
2021/01/09 05:52:37;;;;;;;19.38;12.40;;;2.60;99.90;;;;;;5052927;28;20407;-49
2021/01/09 05:55:03;;;;;;;18.10;12.43;;;2.60;99.90;;;;;;5053160;28;20044;-51
2021/01/09 05:57:33;;;;;;;20.02;14.15;;;2.60;99.90;;;;;;5053317;28;20029;-53
2021/01/09 06:00:01;;;;;;;17.08;12.10;;;2.60;99.90;;;;;;5053329;28;20017;-54
2021/01/09 06:02:28;;;;;;;19.63;13.30;;;2.50;99.90;;;;;;5053272;28;20491;-48
2021/01/09 06:04:58;;;;;;;18.70;12.65;;;2.50;99.90;;;;;;5052673;28;20025;-53
2021/01/09 06:07:27;;;;;;;15.98;11.43;;;2.60;99.90;;;;;;5053218;28;20096;-54
2021/01/09 06:10:08;;;;;;;17.13;12.23;;;2.60;99.90;;;;;;5052836;28;20384;-52
2021/01/09 06:12:58;;;;;;;20.08;13.18;;;2.50;99.90;;;;;;5051339;28;20393;-53
2021/01/09 06:15:24;;;;;;;19.35;13.15;;;2.60;99.90;;;;;;5052612;28;20037;-54
2021/01/09 06:17:51;;;;;;;18.65;11.95;;;2.60;99.90;;;;;;5051691;28;20031;-56
2021/01/09 06:20:17;;;;;;;21.55;13.45;;;2.50;99.90;;;;;;5052573;28;20104;-54
2021/01/09 06:22:43;;;;;;;21.02;13.98;;;2.50;99.90;;;;;;5052040;28;20060;-53
2021/01/09 06:25:11;;;;;;;19.25;12.70;;;2.50;99.90;;;;;;5052509;28;20052;-52
2021/01/09 06:27:39;;;;;;;18.25;12.20;;;2.50;99.90;;;;;;5053051;28;20557;-52
2021/01/09 06:30:09;;;;;;;19.95;13.02;;;2.50;99.90;;;;;;5051266;28;20021;-52
2021/01/09 06:32:38;;;;;;;22.48;14.05;;;2.50;99.90;;;;;;5051815;28;20036;-52
2021/01/09 06:35:05;;;;;;;18.85;12.25;;;2.50;99.90;;;;;;5052449;28;20025;-54
2021/01/09 06:37:30;;;;;;;19.48;13.40;;;2.50;99.90;;;;;;5052546;28;20033;-54
2021/01/09 06:39:56;;;;;;;19.23;13.23;;;2.50;99.90;;;;;;5052150;28;20021;-56
2021/01/09 06:42:24;;;;;;;17.15;11.98;;;2.40;99.90;;;;;;5052315;28;20460;-56
2021/01/09 06:44:50;;;;;;;20.35;13.52;;;2.40;99.90;;;;;;5051573;28;20021;-57
2021/01/09 06:47:30;;;;;;;20.20;12.38;;;2.40;99.90;;;;;;5052166;28;20017;-55
2021/01/09 06:50:18;;;;;;;20.13;12.95;;;2.40;99.90;;;;;;5052057;28;20032;-57
2021/01/09 06:52:52;;;;;;;22.38;13.10;;;2.40;99.90;;;;;;5051260;28;20025;-56
2021/01/09 06:55:37;;;;;;;18.63;12.50;;;2.40;99.90;;;;;;5052058;28;20021;-53
2021/01/09 06:58:09;;;;;;;19.60;12.20;;;2.40;99.90;;;;;;5051927;28;20033;-56
2021/01/09 07:00:36;;;;;;;25.77;13.38;;;2.40;99.90;;;;;;5051709;28;20021;-54
2021/01/09 07:03:11;;;;;;;19.90;14.00;;;2.40;99.90;;;;;;5051268;28;20017;-52
2021/01/09 07:05:50;;;;;;;22.25;13.98;;;2.40;99.90;;;;;;5051937;28;20028;-54
2021/01/09 07:08:28;;;;;;;19.98;13.55;;;2.40;99.90;;;;;;5052090;28;20475;-56
2021/01/09 07:10:57;;;;;;;22.88;14.23;;;2.40;99.90;;;;;;5055313;23;20046;-56
2021/01/09 07:13:23;;;;;;;20.45;13.38;;;2.50;99.90;;;;;;5029834;28;20061;-52
2021/01/09 07:16:12;;;;;;;21.90;14.52;;;2.50;99.90;;;;;;5030818;28;20652;-54
2021/01/09 07:18:40;;;;;;;21.38;14.43;;;2.50;99.90;;;;;;5028935;28;20060;-54
2021/01/09 07:21:07;;;;;;;23.00;14.43;;;2.50;99.90;;;;;;5030667;28;20462;-54
2021/01/09 07:23:34;;;;;;;20.08;13.30;;;2.50;99.90;;;;;;5028672;28;20523;-55
2021/01/09 07:26:02;;;;;;;20.27;13.45;;;2.60;99.90;;;;;;5031103;28;20072;-52
2021/01/09 07:28:33;;;;;;;23.25;13.82;;;2.50;99.90;;;;;;5031438;28;20036;-52
2021/01/09 07:31:04;;;;;;;19.98;14.07;;;2.60;99.90;;;;;;5031398;28;20363;-54
2021/01/09 07:33:32;;;;;;;21.98;13.88;;;2.50;99.90;;;;;;5030764;28;20024;-52
2021/01/09 07:35:58;;;;;;;19.95;13.65;;;2.40;99.90;;;;;;5030867;28;20087;-52
2021/01/09 07:38:24;;;;;;;18.77;12.63;;;2.40;99.90;;;;;;5030874;28;20115;-55
2021/01/09 07:40:54;;;;;;;19.90;12.70;;;2.40;99.90;;;;;;5029668;28;20017;-53
2021/01/09 07:43:42;;;;;;;25.67;14.25;;;2.40;99.90;;;;;;5030729;28;20033;-55
2021/01/09 07:46:30;;;;;;;22.55;14.77;;;2.40;99.90;;;;;;5030972;28;20025;-52
2021/01/09 07:48:57;;;;;;;22.50;13.68;;;2.40;99.90;;;;;;5030871;28;20523;-54
2021/01/09 07:51:52;;;;;;;21.08;13.90;;;2.40;99.90;;;;;;5029462;28;20044;-55
2021/01/09 07:54:36;;;;;;;20.20;12.93;;;2.40;99.90;;;;;;5030043;28;20095;-57
2021/01/09 07:57:27;;;;;;;18.48;12.65;;;2.40;99.90;;;;;;5030636;28;20060;-57
2021/01/09 07:59:59;;;;;;;20.13;13.23;;;2.40;99.90;;;;;;5029969;28;20038;-53
2021/01/09 08:02:25;;;;;;;20.95;13.88;;;2.40;99.90;;;;;;5030679;28;20025;-53
2021/01/09 08:05:08;;;;;;;21.85;13.38;;;2.50;99.90;;;;;;5030143;28;20026;-54
2021/01/09 08:07:45;;;;;;;22.00;14.90;;;2.50;99.90;;;;;;5030672;28;20022;-57
2021/01/09 08:10:15;;;;;;;22.63;14.50;;;2.50;99.90;;;;;;5029278;28;20087;-56
2021/01/09 08:12:40;;;;;;;24.45;15.00;;;2.50;99.90;;;;;;5029877;28;20484;-52
2021/01/09 08:15:06;;;;;;;25.75;17.98;;;2.50;99.90;;;;;;5030631;28;20035;-56
2021/01/09 08:17:32;;;;;;;32.88;18.23;;;2.60;99.90;;;;;;5027531;28;20125;-54
2021/01/09 08:20:12;;;;;;;26.65;15.77;;;2.60;99.90;;;;;;5029090;28;20104;-54
2021/01/09 08:22:47;;;;;;;23.23;15.43;;;2.70;99.90;;;;;;5029687;28;20508;-53
2021/01/09 08:25:12;;;;;;;26.33;16.70;;;2.80;99.90;;;;;;5030265;28;20033;-53
2021/01/09 08:27:46;;;;;;;24.92;15.88;;;2.80;99.90;;;;;;5030256;28;20391;-54
2021/01/09 08:30:17;;;;;;;23.65;15.52;;;3.00;99.90;;;;;;5029920;28;20475;-57
2021/01/09 08:32:44;;;;;;;23.15;14.85;;;3.00;99.90;;;;;;5029298;28;20471;-56
2021/01/09 08:35:11;;;;;;;22.50;14.77;;;3.00;99.90;;;;;;5030081;28;20084;-57
2021/01/09 08:37:37;;;;;;;21.63;14.43;;;3.00;99.90;;;;;;5028823;28;20037;-57
2021/01/09 08:40:16;;;;;;;19.85;12.90;;;2.90;99.90;;;;;;5030011;28;20095;-52
2021/01/09 08:42:52;;;;;;;20.10;13.68;;;2.80;99.90;;;;;;5029572;28;20068;-52
2021/01/09 08:45:18;;;;;;;21.38;13.57;;;2.80;99.90;;;;;;5030429;28;20403;-54
2021/01/09 08:47:44;;;;;;;21.35;14.07;;;2.80;99.90;;;;;;5030385;28;20044;-52
2021/01/09 08:50:12;;;;;;;24.20;14.80;;;2.80;99.90;;;;;;5030325;28;20038;-52
2021/01/09 08:52:43;;;;;;;26.23;15.95;;;2.80;99.90;;;;;;5029526;28;20029;-53
2021/01/09 08:55:11;;;;;;;25.00;15.38;;;2.80;99.90;;;;;;5030220;28;20030;-54
2021/01/09 08:57:37;;;;;;;24.30;14.77;;;2.90;99.90;;;;;;5029984;28;20029;-51
2021/01/09 09:00:03;;;;;;;24.73;14.40;;;2.90;99.90;;;;;;5030105;28;20029;-53
2021/01/09 09:02:32;;;;;;;22.38;13.90;;;3.00;99.90;;;;;;5029740;28;20117;-51
2021/01/09 09:05:02;;;;;;;23.42;14.15;;;3.40;99.90;;;;;;5030014;28;20484;-57
2021/01/09 09:07:31;;;;;;;22.08;14.18;;;3.80;99.90;;;;;;5030077;28;20025;-55
2021/01/09 09:10:00;;;;;;;20.27;13.45;;;4.40;99.30;;;;;;5029632;28;20026;-57
2021/01/09 09:12:25;;;;;;;18.50;13.77;;;5.10;97.80;;;;;;5029793;28;20028;-56
2021/01/09 09:14:59;;;;;;;19.35;13.57;;;6.10;96.30;;;;;;5029181;28;20451;-56
2021/01/09 09:17:25;;;;;;;21.63;13.70;;;7.00;93.70;;;;;;5028252;28;20024;-56
2021/01/09 09:19:51;;;;;;;18.70;13.25;;;7.90;92.00;;;;;;5029897;28;20026;-57
2021/01/09 09:22:27;;;;;;;17.13;13.25;;;8.60;89.60;;;;;;5029801;28;20025;-57
2021/01/09 09:24:53;;;;;;;16.98;13.00;;;9.20;85.90;;;;;;5029356;28;20029;-59
2021/01/09 09:27:27;;;;;;;18.33;12.80;;;9.60;84.40;;;;;;5029768;28;20018;-54
2021/01/09 09:30:08;;;;;;;18.60;12.23;;;9.90;82.10;;;;;;5028127;28;20026;-55
2021/01/09 09:32:34;;;;;;;14.43;12.25;;;10.30;79.20;;;;;;5027345;28;20111;-51
2021/01/09 09:35:24;;;;;;;13.55;10.77;;;10.60;78.20;;;;;;5027828;28;20029;-57
2021/01/09 09:37:51;;;;;;;13.95;10.52;;;10.70;76.10;;;;;;5029272;28;20061;-56
2021/01/09 09:40:23;;;;;;;12.25;9.93;;;10.70;73.70;;;;;;5029508;28;20499;-57
2021/01/09 09:42:49;;;;;;;13.20;10.23;;;10.30;75.50;;;;;;5028837;28;20033;-54
2021/01/09 09:45:16;;;;;;;13.98;10.77;;;9.80;75.70;;;;;;5029614;28;20034;-56
2021/01/09 09:47:49;;;;;;;15.70;9.93;;;10.10;74.00;;;;;;5030785;28;20075;-56
2021/01/09 09:50:21;;;;;;;13.07;9.85;;;10.00;76.50;;;;;;5033185;28;20025;-58
2021/01/09 09:53:01;;;;;;;14.85;11.98;;;9.90;78.40;;;;;;5031331;28;20037;-50
2021/01/09 09:55:27;;;;;;;13.55;10.43;;;9.50;81.20;;;;;;5023199;28;20523;-53
2021/01/09 09:58:11;;;;;;;14.43;11.10;;;8.80;82.50;;;;;;5032836;28;20056;-54
2021/01/09 10:00:46;;;;;;;16.17;11.65;;;8.30;84.60;;;;;;5032386;28;20029;-51
2021/01/09 10:03:12;;;;;;;14.50;10.43;;;7.60;88.10;;;;;;5032226;28;20027;-51
2021/01/09 10:05:38;;;;;;;14.65;10.27;;;7.10;88.40;;;;;;5032441;28;20021;-53
2021/01/09 10:08:15;;;;;;;13.02;9.55;;;6.40;90.10;;;;;;5032682;28;20131;-49
2021/01/09 10:10:42;;;;;;;10.93;8.65;;;6.60;91.00;;;;;;5032008;28;20041;-54
2021/01/09 10:13:08;;;;;;;11.25;8.95;;;6.90;90.10;;;;;;5031950;28;20395;-51
2021/01/09 10:15:33;;;;;;;10.68;8.63;;;7.50;88.50;;;;;;5030648;28;20036;-48
2021/01/09 10:18:00;;;;;;;13.65;9.00;;;7.80;86.10;;;;;;5032710;28;20393;-52
2021/01/09 10:20:26;;;;;;;10.10;8.43;;;8.20;84.30;;;;;;5031705;28;20018;-57
2021/01/09 10:22:52;;;;;;;10.45;7.88;;;8.40;83.30;;;;;;5032084;28;20120;-55
2021/01/09 10:25:18;;;;;;;13.80;9.23;;;8.60;81.10;;;;;;5031422;28;20105;-53
2021/01/09 10:27:43;;;;;;;8.55;6.90;;;9.00;77.50;;;;;;5032089;28;20036;-51
2021/01/09 10:30:09;;;;;;;13.82;7.80;;;9.10;75.70;;;;;;5032016;28;20496;-57
2021/01/09 10:32:35;;;;;;;9.95;7.10;;;8.90;77.10;;;;;;5031530;28;20167;-55
2021/01/09 10:35:01;;;;;;;8.35;6.28;;;8.40;77.70;;;;;;5031902;28;20108;-55
2021/01/09 10:37:26;;;;;;;7.95;5.82;;;7.30;80.10;;;;;;5032155;28;20029;-52
2021/01/09 10:39:52;;;;;;;8.15;6.82;;;6.20;86.10;;;;;;5032260;28;20061;-54
2021/01/09 10:42:17;;;;;;;8.40;6.45;;;5.80;87.90;;;;;;5032340;28;20021;-55
2021/01/09 10:44:42;;;;;;;6.57;5.68;;;5.40;89.70;;;;;;5031511;28;20235;-54
2021/01/09 10:47:08;;;;;;;8.18;6.35;;;5.10;90.40;;;;;;5032241;28;20040;-56
2021/01/09 10:49:34;;;;;;;9.25;5.75;;;5.50;90.10;;;;;;5031951;28;20026;-55
2021/01/09 10:52:00;;;;;;;7.72;5.70;;;5.20;89.70;;;;;;5030622;28;20120;-56
2021/01/09 10:54:25;;;;;;;11.13;6.47;;;5.20;90.40;;;;;;5031091;28;20017;-56
2021/01/09 10:56:51;;;;;;;7.68;6.07;;;5.20;91.10;;;;;;5031852;28;20029;-53
2021/01/09 10:59:16;;;;;;;8.52;6.28;;;5.00;91.50;;;;;;5031526;28;20037;-54
2021/01/09 11:01:42;;;;;;;8.60;6.00;;;4.90;91.40;;;;;;5031719;28;20021;-53
2021/01/09 11:04:07;;;;;;;8.00;5.72;;;4.70;91.50;;;;;;5030986;28;20025;-56
2021/01/09 11:06:33;;;;;;;9.25;6.40;;;4.70;91.70;;;;;;5031248;28;20029;-53
2021/01/09 11:08:59;;;;;;;8.25;6.47;;;4.50;91.70;;;;;;5030625;28;20037;-55
2021/01/09 11:11:24;;;;;;;9.38;6.00;;;4.50;91.50;;;;;;5030709;28;20041;-49
2021/01/09 11:13:50;;;;;;;9.90;6.20;;;4.30;92.20;;;;;;5030570;28;20108;-50
2021/01/09 11:16:20;;;;;;;7.15;5.88;;;4.30;92.00;;;;;;5030739;28;20555;-52
2021/01/09 11:18:46;;;;;;;9.88;5.85;;;4.30;92.30;;;;;;5031009;28;20075;-49
2021/01/09 11:21:11;;;;;;;10.10;6.25;;;4.30;92.00;;;;;;5028579;28;20076;-55
2021/01/09 11:23:37;;;;;;;8.13;5.88;;;4.10;91.80;;;;;;5030640;28;20034;-54
2021/01/09 11:26:02;;;;;;;9.23;6.95;;;4.10;92.20;;;;;;5029845;28;20018;-53
2021/01/09 11:28:28;;;;;;;7.57;5.85;;;4.20;93.10;;;;;;5031032;28;20104;-54
2021/01/09 11:30:53;;;;;;;9.32;6.28;;;4.20;93.20;;;;;;5030900;28;20030;-54
2021/01/09 11:33:19;;;;;;;9.60;6.63;;;4.30;93.00;;;;;;5029814;28;20095;-52
2021/01/09 11:35:44;;;;;;;9.98;6.10;;;4.40;92.60;;;;;;5031210;28;20033;-53
2021/01/09 11:38:10;;;;;;;8.18;6.47;;;4.30;92.10;;;;;;5030218;28;20029;-54
2021/01/09 11:40:35;;;;;;;15.35;5.90;;;4.20;92.20;;;;;;5031021;28;20049;-55
2021/01/09 11:43:01;;;;;;;8.57;5.85;;;4.10;92.20;;;;;;5030237;28;20017;-54
2021/01/09 11:45:26;;;;;;;8.00;5.65;;;4.00;92.50;;;;;;5030793;28;20520;-55
2021/01/09 11:47:52;;;;;;;8.60;6.03;;;4.00;93.20;;;;;;5030519;28;20021;-52
2021/01/09 11:50:18;;;;;;;7.68;5.60;;;4.00;93.10;;;;;;5029512;28;20025;-50
2021/01/09 11:52:44;;;;;;;6.07;5.43;;;4.10;93.00;;;;;;5030170;28;20026;-54
2021/01/09 11:55:10;;;;;;;5.50;4.80;;;4.00;91.70;;;;;;5031090;28;20108;-55
2021/01/09 11:57:35;;;;;;;5.05;4.22;;;3.80;92.10;;;;;;5030547;28;20025;-51
2021/01/09 12:00:07;;;;;;;6.30;4.22;;;3.70;91.20;;;;;;5031119;28;20097;-52
2021/01/09 12:02:33;;;;;;;5.40;4.43;;;3.50;92.00;;;;;;5030254;28;20025;-52
2021/01/09 12:04:58;;;;;;;4.75;3.88;;;3.50;92.00;;;;;;5031387;28;20034;-51
2021/01/09 12:07:24;;;;;;;4.60;4.20;;;3.50;92.20;;;;;;5030949;28;20480;-54
2021/01/09 12:09:49;;;;;;;4.43;3.83;;;3.50;91.90;;;;;;5030794;28;20047;-53
2021/01/09 12:12:15;;;;;;;4.97;4.15;;;3.60;92.00;;;;;;5031080;28;20504;-55
2021/01/09 12:14:40;;;;;;;5.20;4.65;;;3.70;91.60;;;;;;5030548;28;20025;-53
2021/01/09 12:17:06;;;;;;;5.45;4.05;;;3.70;92.10;;;;;;5030908;28;20052;-56
2021/01/09 12:19:31;;;;;;;4.00;3.60;;;3.70;91.90;;;;;;5030493;28;20026;-52
2021/01/09 12:21:57;;;;;;;7.00;4.57;;;3.80;91.80;;;;;;5029244;28;20024;-51
2021/01/09 12:24:22;;;;;;;6.38;4.45;;;3.80;91.70;;;;;;5029927;28;20029;-53
2021/01/09 12:26:53;;;;;;;6.40;4.15;;;3.70;91.30;;;;;;5031025;28;20048;-52
2021/01/09 12:29:19;;;;;;;5.95;3.97;;;3.80;91.20;;;;;;5030682;28;20060;-55
2021/01/09 12:31:44;;;;;;;5.18;4.13;;;3.70;91.40;;;;;;5030384;28;20026;-56
2021/01/09 12:34:11;;;;;;;5.47;4.10;;;3.70;91.40;;;;;;5021392;28;20536;-52
2021/01/09 12:36:37;;;;;;;4.20;3.80;;;3.70;91.80;;;;;;5027627;28;20033;-56
2021/01/09 12:39:03;;;;;;;6.85;4.57;;;3.60;91.70;;;;;;5029234;28;20036;-56
2021/01/09 12:41:36;;;;;;;6.70;5.15;;;3.70;91.70;;;;;;5028574;28;20156;-50
2021/01/09 12:44:02;;;;;;;4.80;4.30;;;3.70;91.70;;;;;;5028793;28;20531;-50
2021/01/09 12:46:48;;;;;;;5.45;4.22;;;3.60;91.40;;;;;;5028884;28;20044;-54